createdAt,value
2022-12-29T00:01:02.538Z,11.64
2022-12-29T00:03:29.795Z,11.64
2022-12-29T00:05:58.554Z,11.61
2022-12-29T00:08:40.840Z,11.59
2022-12-29T00:11:13.908Z,11.53
2022-12-29T00:13:59.970Z,11.55
2022-12-29T00:16:28.118Z,11.64
2022-12-29T00:18:55.353Z,11.56
2022-12-29T00:21:43.069Z,11.51
2022-12-29T00:24:28.571Z,11.50
2022-12-29T00:27:22.847Z,11.49
2022-12-29T00:30:11.419Z,11.56
2022-12-29T00:32:57.104Z,11.57
2022-12-29T00:35:36.638Z,11.52
2022-12-29T00:38:25.545Z,11.49
2022-12-29T00:41:11.195Z,11.45
2022-12-29T00:43:56.753Z,11.45
2022-12-29T00:46:23.781Z,11.53
2022-12-29T00:49:09.574Z,11.53
2022-12-29T00:51:36.716Z,11.60
2022-12-29T00:54:03.844Z,11.61
2022-12-29T00:56:31.098Z,11.63
2022-12-29T00:59:06.906Z,11.64
2022-12-29T01:01:35.256Z,11.69
2022-12-29T01:04:04.514Z,11.67
2022-12-29T01:06:33.142Z,11.70
2022-12-29T01:09:19.410Z,11.71
2022-12-29T01:11:46.580Z,11.71
2022-12-29T01:14:13.673Z,11.72
2022-12-29T01:16:41.164Z,11.74
2022-12-29T01:19:08.826Z,11.78
2022-12-29T01:21:35.968Z,11.81
2022-12-29T01:24:03.512Z,11.82
2022-12-29T01:26:30.523Z,11.78
2022-12-29T01:28:57.833Z,11.81
2022-12-29T01:31:24.849Z,11.79
2022-12-29T01:33:52.073Z,11.80
2022-12-29T01:36:21.030Z,11.86
2022-12-29T01:38:48.186Z,11.81
2022-12-29T01:41:17.415Z,11.83
2022-12-29T01:43:51.599Z,11.87
2022-12-29T01:46:39.828Z,11.90
2022-12-29T01:49:09.851Z,11.91
2022-12-29T01:51:56.300Z,11.92
2022-12-29T01:54:35.680Z,11.85
2022-12-29T01:57:08.883Z,11.90
2022-12-29T01:59:48.669Z,11.84
2022-12-29T02:02:15.882Z,11.92
2022-12-29T02:04:47.546Z,11.94
2022-12-29T02:07:23.828Z,11.90
2022-12-29T02:09:54.094Z,11.88
2022-12-29T02:12:23.861Z,11.85
2022-12-29T02:14:59.290Z,11.84
2022-12-29T02:18:33.353Z,11.98
2022-12-29T02:21:57.242Z,11.92
2022-12-29T02:24:54.620Z,11.94
2022-12-29T02:28:10.369Z,11.86
2022-12-29T02:31:13.170Z,11.90
2022-12-29T02:34:21.456Z,11.91
2022-12-29T02:37:27.573Z,11.80
2022-12-29T02:40:10.986Z,11.83
2022-12-29T02:42:51.924Z,11.82
2022-12-29T02:45:58.760Z,11.79
2022-12-29T02:48:50.048Z,11.76
2022-12-29T02:51:26.798Z,11.71
2022-12-29T02:54:15.006Z,11.79
2022-12-29T02:56:42.278Z,11.70
2022-12-29T02:59:11.009Z,11.71
2022-12-29T03:02:18.905Z,11.66
2022-12-29T03:05:21.585Z,11.62
2022-12-29T03:08:32.150Z,11.62
2022-12-29T03:11:33.501Z,11.66
2022-12-29T03:14:45.835Z,11.56
2022-12-29T03:17:42.031Z,11.55
2022-12-29T03:20:15.713Z,11.56
2022-12-29T03:22:48.797Z,11.54
2022-12-29T03:25:27.222Z,11.54
2022-12-29T03:28:02.747Z,11.54
2022-12-29T03:30:32.375Z,11.53
2022-12-29T03:33:08.837Z,11.51
2022-12-29T03:35:39.740Z,11.54
2022-12-29T03:38:34.652Z,11.52
2022-12-29T03:41:10.470Z,11.54
2022-12-29T03:43:38.166Z,11.58
2022-12-29T03:46:05.343Z,11.56
2022-12-29T03:48:33.890Z,11.55
2022-12-29T03:51:01.728Z,11.56
2022-12-29T03:53:28.823Z,11.55
2022-12-29T03:55:55.851Z,11.54
2022-12-29T03:58:22.867Z,11.54
2022-12-29T04:00:49.961Z,11.59
2022-12-29T04:03:17.007Z,11.55
2022-12-29T04:05:45.480Z,11.65
2022-12-29T04:08:12.560Z,11.62
2022-12-29T04:10:39.590Z,11.68
2022-12-29T04:13:06.689Z,11.61
2022-12-29T04:15:34.605Z,11.56
2022-12-29T04:18:01.632Z,11.56
2022-12-29T04:20:47.266Z,11.55
2022-12-29T04:23:14.289Z,11.48
2022-12-29T04:25:41.380Z,11.45
2022-12-29T04:28:09.096Z,11.43
2022-12-29T04:30:36.419Z,11.45
2022-12-29T04:33:03.516Z,11.40
2022-12-29T04:35:30.511Z,11.36
2022-12-29T04:37:57.552Z,11.40
2022-12-29T04:40:24.829Z,11.37
2022-12-29T04:42:51.998Z,11.38
2022-12-29T04:45:19.368Z,11.43
2022-12-29T04:47:46.361Z,11.42
2022-12-29T04:50:13.828Z,11.40
2022-12-29T04:52:41.170Z,11.39
2022-12-29T04:55:17.414Z,11.35
2022-12-29T04:57:45.608Z,11.44
2022-12-29T05:00:13.708Z,11.39
2022-12-29T05:02:40.923Z,11.34
2022-12-29T05:05:08.788Z,11.35
2022-12-29T05:07:35.933Z,11.37
2022-12-29T05:10:03.232Z,11.43
2022-12-29T05:12:35.759Z,11.41
2022-12-29T05:15:03.854Z,11.52
2022-12-29T05:17:31.453Z,11.41
2022-12-29T05:19:58.643Z,11.42
2022-12-29T05:22:26.324Z,11.40
2022-12-29T05:24:53.486Z,11.35
2022-12-29T05:27:20.532Z,11.58
2022-12-29T05:29:47.566Z,11.49
2022-12-29T05:32:15.390Z,11.43
2022-12-29T05:34:42.477Z,11.42
2022-12-29T05:37:09.697Z,11.40
2022-12-29T05:39:36.836Z,11.56
2022-12-29T05:42:04.183Z,11.41
2022-12-29T05:44:31.334Z,11.36
2022-12-29T05:46:58.408Z,11.35
2022-12-29T05:49:25.462Z,11.46
2022-12-29T05:51:52.619Z,11.34
2022-12-29T05:54:19.672Z,11.43
2022-12-29T05:56:46.750Z,11.45
2022-12-29T05:59:13.803Z,11.46
2022-12-29T06:01:40.979Z,11.46
2022-12-29T06:04:08.127Z,11.41
2022-12-29T06:06:35.380Z,11.43
2022-12-29T06:09:02.480Z,11.47
2022-12-29T06:11:29.489Z,11.43
2022-12-29T06:13:56.533Z,11.35
2022-12-29T06:16:23.654Z,11.36
2022-12-29T06:18:50.622Z,11.54
2022-12-29T06:21:17.701Z,11.34
2022-12-29T06:23:44.865Z,11.42
2022-12-29T06:26:11.902Z,11.38
2022-12-29T06:28:38.978Z,11.39
2022-12-29T06:31:06.200Z,11.42
2022-12-29T06:33:33.276Z,11.41
2022-12-29T06:36:00.743Z,11.42
2022-12-29T06:38:27.814Z,11.54
2022-12-29T06:40:54.910Z,11.46
2022-12-29T06:43:21.992Z,11.41
2022-12-29T06:45:48.993Z,12.33
2022-12-29T06:48:16.008Z,13.14
2022-12-29T06:50:44.212Z,13.53
2022-12-29T06:53:11.285Z,13.76
2022-12-29T06:55:38.307Z,13.92
2022-12-29T06:58:05.395Z,14.07
2022-12-29T07:00:32.394Z,14.12
2022-12-29T07:02:59.585Z,14.20
2022-12-29T07:05:32.563Z,11.81
2022-12-29T07:07:59.898Z,11.46
2022-12-29T07:10:27.731Z,11.26
2022-12-29T07:12:54.779Z,11.24
2022-12-29T07:15:21.867Z,11.28
2022-12-29T07:17:50.611Z,11.25
2022-12-29T07:20:19.433Z,11.29
2022-12-29T07:22:50.554Z,11.30
2022-12-29T07:25:17.703Z,11.30
2022-12-29T07:27:44.799Z,11.30
2022-12-29T07:30:12.835Z,11.30
2022-12-29T07:32:39.856Z,11.27
2022-12-29T07:35:13.081Z,11.19
2022-12-29T07:37:40.131Z,11.29
2022-12-29T07:40:08.497Z,11.24
2022-12-29T07:42:35.539Z,11.19
2022-12-29T07:45:02.637Z,11.11
2022-12-29T07:47:29.638Z,11.08
2022-12-29T07:49:56.647Z,11.03
2022-12-29T07:52:23.691Z,11.12
2022-12-29T07:54:50.825Z,11.03
2022-12-29T07:57:17.848Z,11.10
2022-12-29T07:59:44.928Z,11.08
2022-12-29T08:02:12.804Z,11.07
2022-12-29T08:04:40.006Z,11.04
2022-12-29T08:07:07.301Z,11.04
2022-12-29T08:09:34.615Z,11.09
2022-12-29T08:12:01.702Z,11.11
2022-12-29T08:14:28.780Z,11.18
2022-12-29T08:16:55.882Z,11.17
2022-12-29T08:19:22.915Z,11.20
2022-12-29T08:21:51.337Z,11.21
2022-12-29T08:24:18.487Z,11.26
2022-12-29T08:26:47.835Z,11.34
2022-12-29T08:29:14.888Z,11.27
2022-12-29T08:31:41.963Z,11.34
2022-12-29T08:34:09.072Z,11.24
2022-12-29T08:36:36.295Z,11.29
2022-12-29T08:39:03.353Z,11.43
2022-12-29T08:41:30.325Z,11.29
2022-12-29T08:43:57.697Z,11.38
2022-12-29T08:46:25.002Z,11.42
2022-12-29T08:48:52.002Z,11.24
2022-12-29T08:51:24.543Z,11.39
2022-12-29T08:53:52.640Z,11.26
2022-12-29T08:56:19.640Z,11.25
2022-12-29T08:58:47.045Z,11.12
2022-12-29T09:01:14.102Z,11.14
2022-12-29T09:06:28.888Z,11.34
2022-12-29T09:08:56.629Z,11.22
2022-12-29T09:11:26.031Z,11.09
2022-12-29T09:13:54.289Z,11.12
2022-12-29T09:16:25.312Z,11.16
2022-12-29T09:18:52.561Z,11.13
2022-12-29T09:21:19.636Z,11.08
2022-12-29T09:23:46.631Z,11.03
2022-12-29T09:26:13.591Z,10.94
2022-12-29T09:28:41.200Z,11.10
2022-12-29T09:31:08.277Z,11.04
2022-12-29T09:33:35.762Z,10.90
2022-12-29T09:36:03.824Z,10.94
2022-12-29T09:38:31.101Z,10.91
2022-12-29T09:41:56.439Z,10.86
2022-12-29T09:44:57.015Z,10.81
2022-12-29T09:47:26.320Z,10.75
2022-12-29T09:49:57.384Z,10.91
2022-12-29T09:52:33.230Z,10.80
2022-12-29T09:55:12.121Z,10.77
2022-12-29T09:57:56.227Z,10.74
2022-12-29T10:00:52.982Z,10.71
2022-12-29T10:03:25.235Z,10.73
2022-12-29T10:06:10.098Z,10.70
2022-12-29T10:08:48.617Z,10.73
2022-12-29T10:11:36.698Z,10.77
2022-12-29T10:14:31.215Z,12.17
2022-12-29T10:17:27.959Z,12.98
2022-12-29T10:20:19.509Z,13.21
2022-12-29T10:23:41.005Z,13.39
2022-12-29T10:26:21.506Z,13.78
2022-12-29T10:29:05.432Z,13.73
2022-12-29T10:31:59.270Z,13.78
2022-12-29T10:34:45.876Z,13.88
2022-12-29T10:37:30.278Z,11.48
2022-12-29T10:40:03.557Z,11.09
2022-12-29T10:42:43.694Z,11.00
2022-12-29T10:45:19.179Z,10.97
2022-12-29T10:48:03.043Z,10.91
2022-12-29T10:50:30.935Z,10.92
2022-12-29T10:53:03.131Z,10.97
2022-12-29T10:55:37.459Z,10.96
2022-12-29T10:58:07.985Z,10.98
2022-12-29T11:00:35.462Z,11.01
2022-12-29T11:03:39.205Z,11.06
2022-12-29T11:06:30.446Z,11.04
2022-12-29T11:09:36.504Z,11.05
2022-12-29T11:12:21.492Z,10.99
2022-12-29T11:15:01.447Z,11.05
2022-12-29T11:17:28.485Z,11.11
2022-12-29T11:19:55.572Z,11.05
2022-12-29T11:22:29.465Z,11.05
2022-12-29T11:25:12.028Z,11.03
2022-12-29T11:27:39.317Z,11.02
2022-12-29T11:30:26.443Z,10.99
2022-12-29T11:32:55.436Z,11.03
2022-12-29T11:35:43.324Z,11.06
2022-12-29T11:38:30.316Z,11.11
2022-12-29T11:40:57.371Z,11.04
2022-12-29T11:43:43.975Z,11.09
2022-12-29T11:46:30.268Z,11.09
2022-12-29T11:49:00.582Z,11.09
2022-12-29T11:51:47.043Z,11.15
2022-12-29T11:54:30.458Z,11.19
2022-12-29T11:56:59.642Z,11.25
2022-12-29T11:59:30.945Z,11.25
2022-12-29T12:02:00.593Z,11.30
2022-12-29T12:04:33.619Z,11.38
2022-12-29T12:07:21.952Z,11.43
2022-12-29T12:10:04.878Z,11.49
2022-12-29T12:12:57.366Z,11.48
2022-12-29T12:15:47.501Z,11.51
2022-12-29T12:18:32.869Z,11.48
2022-12-29T12:21:44.854Z,11.48
2022-12-29T12:24:57.709Z,11.52
2022-12-29T12:27:32.449Z,11.51
2022-12-29T12:30:19.362Z,11.51
2022-12-29T12:33:01.711Z,11.51
2022-12-29T12:36:08.906Z,11.51
2022-12-29T12:39:10.821Z,11.39
2022-12-29T12:41:43.593Z,11.35
2022-12-29T12:44:39.408Z,11.32
2022-12-29T12:47:16.132Z,11.34
2022-12-29T12:50:26.247Z,11.24
2022-12-29T12:53:26.964Z,11.20
2022-12-29T12:56:00.147Z,11.15
2022-12-29T12:58:44.718Z,11.15
2022-12-29T13:01:14.756Z,11.11
2022-12-29T13:04:02.458Z,11.11
2022-12-29T13:06:56.747Z,11.12
2022-12-29T13:10:00.707Z,11.10
2022-12-29T13:12:36.666Z,11.09
2022-12-29T13:15:32.613Z,11.06
2022-12-29T13:18:28.694Z,11.04
2022-12-29T13:21:25.082Z,10.99
2022-12-29T13:24:19.780Z,11.07
2022-12-29T13:26:55.770Z,11.03
2022-12-29T13:29:39.847Z,11.13
2022-12-29T13:32:48.780Z,11.04
2022-12-29T13:35:24.297Z,11.05
2022-12-29T13:38:16.923Z,11.05
2022-12-29T13:40:51.191Z,11.08
2022-12-29T13:43:20.667Z,11.10
2022-12-29T13:46:13.442Z,11.07
2022-12-29T13:48:52.295Z,11.06
2022-12-29T13:51:27.487Z,11.04
2022-12-29T13:54:24.990Z,11.04
2022-12-29T13:57:52.212Z,11.06
2022-12-29T14:00:25.041Z,11.05
2022-12-29T14:03:26.591Z,10.96
2022-12-29T14:06:26.677Z,10.97
2022-12-29T14:09:01.271Z,10.95
2022-12-29T14:11:37.243Z,10.96
2022-12-29T14:14:24.793Z,10.94
2022-12-29T14:16:53.424Z,11.01
2022-12-29T14:19:29.870Z,11.01
2022-12-29T14:22:05.516Z,11.00
2022-12-29T14:24:38.609Z,11.04
2022-12-29T14:27:11.506Z,10.98
2022-12-29T14:29:41.308Z,11.02
2022-12-29T14:32:26.399Z,10.97
2022-12-29T14:34:57.893Z,10.93
2022-12-29T14:37:37.236Z,10.91
2022-12-29T14:40:26.186Z,10.84
2022-12-29T14:42:56.745Z,10.89
2022-12-29T14:45:33.781Z,10.87
2022-12-29T14:48:01.191Z,10.86
2022-12-29T14:50:45.401Z,10.79
2022-12-29T14:53:50.270Z,10.78
2022-12-29T14:56:21.524Z,10.83
2022-12-29T14:59:04.685Z,10.78
2022-12-29T15:01:34.695Z,10.76
2022-12-29T15:04:19.258Z,10.81
2022-12-29T15:06:47.435Z,10.77
2022-12-29T15:09:31.361Z,10.76
2022-12-29T15:12:40.541Z,10.69
2022-12-29T15:15:31.783Z,10.73
2022-12-29T15:18:12.841Z,10.69
2022-12-29T15:20:39.962Z,10.77
2022-12-29T15:23:15.788Z,10.68
2022-12-29T15:26:07.958Z,10.58
2022-12-29T15:28:44.038Z,10.59
2022-12-29T15:31:29.787Z,10.62
2022-12-29T15:34:13.113Z,10.59
2022-12-29T15:36:42.309Z,10.56
2022-12-29T15:39:52.299Z,10.51
2022-12-29T15:42:53.680Z,10.51
2022-12-29T15:45:21.092Z,10.52
2022-12-29T15:47:50.719Z,10.46
2022-12-29T15:50:44.277Z,10.52
2022-12-29T15:53:21.044Z,10.47
2022-12-29T15:55:50.711Z,10.51
2022-12-29T15:58:28.765Z,10.47
2022-12-29T16:01:00.905Z,10.54
2022-12-29T16:03:34.090Z,10.49
2022-12-29T16:06:35.066Z,10.45
2022-12-29T16:09:15.030Z,10.43
2022-12-29T16:11:55.521Z,10.40
2022-12-29T16:14:40.487Z,10.42
2022-12-29T16:17:11.289Z,10.34
2022-12-29T16:19:41.559Z,10.25
2022-12-29T16:22:34.952Z,10.30
2022-12-29T16:25:26.228Z,10.36
2022-12-29T16:27:54.228Z,10.36
2022-12-29T16:30:34.213Z,10.36
2022-12-29T16:33:05.032Z,10.33
2022-12-29T16:35:47.388Z,10.33
2022-12-29T16:38:22.326Z,10.25
2022-12-29T16:41:03.577Z,10.26
2022-12-29T16:43:42.765Z,10.26
2022-12-29T16:46:31.830Z,10.23
2022-12-29T16:48:59.265Z,10.24
2022-12-29T16:51:35.196Z,10.23
2022-12-29T16:54:03.115Z,10.18
2022-12-29T16:56:36.050Z,10.13
2022-12-29T16:59:21.637Z,10.12
2022-12-29T17:01:48.920Z,10.25
2022-12-29T17:04:16.092Z,10.11
2022-12-29T17:06:44.221Z,10.12
2022-12-29T17:09:27.454Z,10.08
2022-12-29T17:12:06.904Z,10.15
2022-12-29T17:14:47.619Z,10.03
2022-12-29T17:17:21.224Z,9.99
2022-12-29T17:19:53.317Z,9.97
2022-12-29T17:22:26.956Z,9.98
2022-12-29T17:24:59.847Z,9.85
2022-12-29T17:27:53.954Z,9.83
2022-12-29T17:30:28.373Z,9.80
2022-12-29T17:33:19.902Z,9.83
2022-12-29T17:35:51.698Z,9.81
2022-12-29T17:38:28.993Z,9.70
2022-12-29T17:40:56.341Z,9.82
2022-12-29T17:43:23.484Z,9.78
2022-12-29T17:45:56.468Z,9.76
2022-12-29T17:48:24.831Z,9.70
2022-12-29T17:50:53.465Z,9.75
2022-12-29T17:53:25.286Z,9.67
2022-12-29T17:55:52.554Z,9.70
2022-12-29T17:58:28.449Z,9.66
2022-12-29T18:00:59.779Z,9.59
2022-12-29T18:03:36.744Z,9.56
2022-12-29T18:06:08.250Z,9.60
2022-12-29T18:08:36.653Z,9.56
2022-12-29T18:11:04.171Z,9.60
2022-12-29T18:13:45.481Z,9.76
2022-12-29T18:16:14.387Z,9.73
2022-12-29T18:18:41.568Z,9.71
2022-12-29T18:21:20.832Z,9.76
2022-12-29T18:23:49.240Z,9.81
2022-12-29T18:26:28.992Z,10.10
2022-12-29T18:28:57.852Z,9.91
2022-12-29T18:31:28.305Z,9.85
2022-12-29T18:33:58.020Z,9.79
2022-12-29T18:36:26.178Z,9.77
2022-12-29T18:38:54.759Z,9.82
2022-12-29T18:41:25.105Z,9.79
2022-12-29T18:43:52.641Z,9.74
2022-12-29T18:46:23.036Z,9.71
2022-12-29T18:48:52.023Z,9.70
2022-12-29T18:51:23.451Z,9.65
2022-12-29T18:53:54.098Z,9.67
2022-12-29T18:56:22.693Z,9.78
2022-12-29T18:58:50.639Z,9.64
2022-12-29T19:01:25.647Z,9.75
2022-12-29T19:03:53.634Z,9.71
2022-12-29T19:06:21.424Z,9.69
2022-12-29T19:08:48.496Z,9.73
2022-12-29T19:11:15.531Z,9.70
2022-12-29T19:13:42.716Z,9.76
2022-12-29T19:16:20.053Z,9.78
2022-12-29T19:18:58.174Z,9.63
2022-12-29T19:21:31.407Z,9.67
2022-12-29T19:23:58.412Z,9.68
2022-12-29T19:26:38.162Z,9.58
2022-12-29T19:29:08.365Z,9.59
2022-12-29T19:31:37.118Z,9.53
2022-12-29T19:34:04.361Z,9.59
2022-12-29T19:36:31.538Z,9.51
2022-12-29T19:38:58.797Z,9.53
2022-12-29T19:41:25.986Z,9.52
2022-12-29T19:43:53.108Z,9.48
2022-12-29T19:46:20.787Z,9.52
2022-12-29T19:48:48.016Z,9.59
2022-12-29T19:51:17.267Z,9.47
2022-12-29T19:53:45.605Z,9.45
2022-12-29T19:56:13.313Z,9.44
2022-12-29T19:58:46.643Z,9.47
2022-12-29T20:01:21.675Z,9.50
2022-12-29T20:03:49.855Z,9.43
2022-12-29T20:06:18.247Z,9.42
2022-12-29T20:08:45.301Z,9.39
2022-12-29T20:11:16.292Z,9.41
2022-12-29T20:13:44.242Z,9.54
2022-12-29T20:16:17.934Z,9.41
2022-12-29T20:18:45.593Z,9.44
2022-12-29T20:21:20.131Z,9.45
2022-12-29T20:23:48.084Z,9.40
2022-12-29T20:26:21.409Z,9.54
2022-12-29T20:28:49.469Z,9.51
2022-12-29T20:31:24.524Z,9.34
2022-12-29T20:33:51.835Z,9.35
2022-12-29T20:36:24.187Z,9.32
2022-12-29T20:38:53.824Z,9.46
2022-12-29T20:41:22.790Z,9.39
2022-12-29T20:43:53.123Z,9.32
2022-12-29T20:46:24.175Z,9.44
2022-12-29T20:48:54.205Z,9.36
2022-12-29T20:51:21.384Z,9.40
2022-12-29T20:53:49.215Z,9.44
2022-12-29T20:56:21.552Z,9.43
2022-12-29T21:01:36.973Z,9.17
2022-12-29T21:04:05.661Z,9.23
2022-12-29T21:06:35.458Z,9.23
2022-12-29T21:09:03.263Z,9.29
2022-12-29T21:11:30.477Z,9.18
2022-12-29T21:14:01.175Z,9.19
2022-12-29T21:16:29.023Z,9.11
2022-12-29T21:18:56.069Z,9.07
2022-12-29T21:21:25.706Z,9.12
2022-12-29T21:23:53.243Z,9.13
2022-12-29T21:26:23.089Z,9.12
2022-12-29T21:28:51.654Z,9.12
2022-12-29T21:31:35.988Z,9.07
2022-12-29T21:34:05.642Z,9.10
2022-12-29T21:36:33.265Z,9.06
2022-12-29T21:39:03.407Z,9.10
2022-12-29T21:41:31.450Z,9.13
2022-12-29T21:44:17.434Z,9.11
2022-12-29T21:46:46.923Z,9.04
2022-12-29T21:49:13.999Z,9.17
2022-12-29T21:51:50.135Z,9.03
2022-12-29T21:54:44.022Z,9.01
2022-12-29T21:57:33.278Z,9.02
2022-12-29T22:00:18.758Z,9.04
2022-12-29T22:03:04.237Z,9.02
2022-12-29T22:05:49.761Z,9.04
2022-12-29T22:08:35.628Z,8.90
2022-12-29T22:11:27.285Z,8.97
2022-12-29T22:13:56.339Z,8.96
2022-12-29T22:16:25.275Z,8.86
2022-12-29T22:18:52.897Z,8.93
2022-12-29T22:21:20.231Z,8.91
2022-12-29T22:23:47.221Z,8.93
2022-12-29T22:26:15.394Z,8.97
2022-12-29T22:28:46.063Z,8.86
2022-12-29T22:31:42.381Z,8.90
2022-12-29T22:34:10.938Z,8.91
2022-12-29T22:36:37.965Z,8.82
2022-12-29T22:39:05.051Z,8.80
2022-12-29T22:41:32.042Z,8.80
2022-12-29T22:43:59.119Z,8.82
2022-12-29T22:46:26.164Z,8.72
2022-12-29T22:48:53.187Z,8.76
2022-12-29T22:51:20.106Z,8.73
2022-12-29T22:53:50.121Z,8.71
2022-12-29T22:56:17.608Z,8.64
2022-12-29T22:58:47.858Z,8.67
2022-12-29T23:01:19.271Z,8.72
2022-12-29T23:03:46.478Z,8.75
2022-12-29T23:06:16.369Z,8.68
2022-12-29T23:08:44.665Z,8.68
2022-12-29T23:11:13.458Z,8.66
2022-12-29T23:13:41.666Z,8.59
2022-12-29T23:16:08.919Z,8.62
2022-12-29T23:18:36.240Z,8.59
2022-12-29T23:21:05.184Z,8.65
2022-12-29T23:23:50.698Z,8.64
2022-12-29T23:26:23.117Z,8.65
2022-12-29T23:28:53.536Z,8.65
2022-12-29T23:31:26.569Z,8.59
2022-12-29T23:33:55.525Z,8.63
2022-12-29T23:36:23.495Z,8.57
2022-12-29T23:38:50.588Z,8.50
2022-12-29T23:41:17.866Z,8.58
2022-12-29T23:43:44.836Z,8.52
2022-12-29T23:46:16.432Z,8.50
2022-12-29T23:48:43.652Z,8.41
2022-12-29T23:51:11.375Z,8.45
2022-12-29T23:53:42.718Z,8.50
2022-12-29T23:56:14.293Z,8.48
2022-12-29T23:58:41.388Z,8.51
